Time;durP1;ratioP1;P1;durP2;ratioP2;P2;SDS_P1;SDS_P2;PMS_P1;PMS_P2;Temp;Humidity;BMP_temperature;BMP_pressure;BME280_temperature;BME280_humidity;BME280_pressure;Samples;Min_cycle;Max_cycle;Signal;HPM_P1;HPM_P2
2024/03/15 00:00:13;;;;;;;17.87;12.83;;;10.10;99.90;;;;;;6339270;22;19995;-74
2024/03/15 00:02:39;;;;;;;19.33;13.07;;;10.10;99.90;;;;;;6339194;22;20002;-75
2024/03/15 00:05:05;;;;;;;20.67;13.30;;;10.10;99.90;;;;;;6338888;22;20335;-74
2024/03/15 00:07:31;;;;;;;18.77;13.23;;;10.10;99.90;;;;;;6339398;22;20014;-74
2024/03/15 00:09:57;;;;;;;18.20;12.77;;;10.00;99.90;;;;;;6338962;22;19995;-75
2024/03/15 00:12:24;;;;;;;18.63;12.90;;;10.00;99.90;;;;;;6340269;22;19999;-74
2024/03/15 00:14:50;;;;;;;19.10;12.17;;;10.00;99.90;;;;;;6340589;22;20408;-75
2024/03/15 00:17:17;;;;;;;19.20;12.90;;;10.00;99.90;;;;;;6339844;22;20011;-75
2024/03/15 00:34:57;;;;;;;21.08;12.05;;;9.90;99.90;;;;;;6008759;23;20023;-75
2024/03/15 00:37:45;;;;;;;18.07;12.83;;;9.80;99.90;;;;;;5952894;23;20099;-74
2024/03/15 00:40:11;;;;;;;18.90;12.10;;;9.80;99.90;;;;;;5925157;24;20885;-73
2024/03/15 00:45:57;;;;;;;18.40;12.67;;;9.70;99.90;;;;;;6124063;23;20068;-75
2024/03/15 00:48:23;;;;;;;23.00;12.57;;;9.70;99.90;;;;;;6242926;23;20040;-75
2024/03/15 00:50:49;;;;;;;17.93;12.60;;;9.60;99.90;;;;;;6243953;23;20424;-75
2024/03/15 00:53:15;;;;;;;17.90;12.63;;;9.60;99.90;;;;;;6294928;22;20324;-75
2024/03/15 00:55:41;;;;;;;16.97;12.47;;;9.60;99.90;;;;;;6338517;22;19995;-71
2024/03/15 00:58:07;;;;;;;22.27;12.73;;;9.60;99.90;;;;;;6338712;22;20037;-73
2024/03/15 01:00:33;;;;;;;18.17;12.47;;;9.60;99.90;;;;;;6339026;22;19998;-75
2024/03/15 01:02:59;;;;;;;18.30;11.87;;;9.70;99.90;;;;;;6338309;22;20081;-74
2024/03/15 01:05:25;;;;;;;21.40;13.50;;;9.60;99.90;;;;;;6338677;22;19998;-72
2024/03/15 01:07:51;;;;;;;17.23;11.33;;;9.50;99.90;;;;;;6339102;22;19995;-73
2024/03/15 01:10:17;;;;;;;13.23;10.47;;;9.50;99.90;;;;;;6339168;22;19995;-75
2024/03/15 01:12:43;;;;;;;15.10;11.13;;;9.40;99.90;;;;;;6339223;22;20002;-74
2024/03/15 01:15:09;;;;;;;20.67;11.60;;;9.40;99.90;;;;;;6338785;22;19995;-74
2024/03/15 01:17:36;;;;;;;16.37;11.03;;;9.40;99.90;;;;;;6338852;22;20457;-74
2024/03/15 01:20:05;;;;;;;19.17;11.53;;;9.30;99.90;;;;;;6339103;22;20003;-74
2024/03/15 01:22:32;;;;;;;18.70;11.13;;;9.30;99.90;;;;;;6338681;22;20006;-75
2024/03/15 01:24:58;;;;;;;17.40;10.93;;;9.20;99.90;;;;;;6337864;22;20448;-74
2024/03/15 01:27:25;;;;;;;19.40;11.13;;;9.20;99.90;;;;;;6338047;22;20005;-71
2024/03/15 01:29:53;;;;;;;18.13;10.87;;;9.10;99.90;;;;;;6338469;22;19999;-71
2024/03/15 01:32:19;;;;;;;16.83;11.70;;;9.10;99.90;;;;;;6338272;22;20038;-70
2024/03/15 01:34:45;;;;;;;18.17;11.63;;;9.10;99.90;;;;;;6338699;22;19999;-70
2024/03/15 01:37:11;;;;;;;19.23;11.20;;;9.00;99.90;;;;;;6338386;22;20057;-71
2024/03/15 01:39:38;;;;;;;17.87;10.33;;;9.00;99.90;;;;;;6336660;22;20003;-70
2024/03/15 01:42:03;;;;;;;16.07;10.53;;;9.00;99.90;;;;;;6336891;22;20332;-71
2024/03/15 01:44:52;;;;;;;19.33;11.97;;;8.90;99.90;;;;;;6337794;22;20056;-71
2024/03/15 01:47:25;;;;;;;23.80;11.70;;;8.90;99.90;;;;;;6338182;22;20338;-73
2024/03/15 01:49:55;;;;;;;19.37;11.87;;;8.90;99.90;;;;;;6339353;22;20013;-74
2024/03/15 01:52:21;;;;;;;22.37;11.77;;;8.80;99.90;;;;;;6338757;22;20003;-73
2024/03/15 01:54:48;;;;;;;18.37;11.00;;;8.80;99.90;;;;;;6338850;22;19994;-74
2024/03/15 01:57:23;;;;;;;26.37;11.77;;;8.90;99.90;;;;;;6338755;22;20371;-74
2024/03/15 01:59:49;;;;;;;30.00;10.50;;;8.90;99.90;;;;;;6334502;22;19999;-72
2024/03/15 02:12:06;;;;;;;16.13;9.53;;;8.80;99.90;;;;;;6151252;23;20124;-73
2024/03/15 02:21:11;;;;;;;14.70;9.83;;;8.80;99.90;;;;;;6150591;23;20055;-74
2024/03/15 02:24:05;;;;;;;19.13;9.67;;;8.80;99.90;;;;;;6256200;22;20062;-74
2024/03/15 02:26:35;;;;;;;19.57;10.27;;;8.80;99.90;;;;;;6307087;22;20030;-74
2024/03/15 02:29:02;;;;;;;19.63;10.73;;;8.80;99.90;;;;;;6307131;22;19999;-74
2024/03/15 02:31:28;;;;;;;15.07;9.60;;;8.80;99.90;;;;;;6307184;22;20056;-74
2024/03/15 02:33:57;;;;;;;18.53;10.50;;;8.80;99.90;;;;;;6307227;22;20405;-74
2024/03/15 02:36:24;;;;;;;20.43;10.67;;;8.70;99.90;;;;;;6306705;22;20006;-74
2024/03/15 02:38:50;;;;;;;20.57;10.43;;;8.70;99.90;;;;;;6307217;22;20011;-72
2024/03/15 02:41:16;;;;;;;19.80;10.53;;;8.70;99.90;;;;;;6306948;22;20079;-74
2024/03/15 02:43:42;;;;;;;18.27;10.57;;;8.70;99.90;;;;;;6306440;22;20003;-73
2024/03/15 02:46:09;;;;;;;11.57;9.47;;;8.70;99.90;;;;;;6306943;22;20364;-74
2024/03/15 02:48:38;;;;;;;22.47;10.43;;;8.60;99.90;;;;;;6306812;22;20003;-72
2024/03/15 02:51:07;;;;;;;19.97;10.23;;;8.60;99.90;;;;;;6279254;22;20329;-73
2024/03/15 02:53:33;;;;;;;14.60;9.13;;;8.60;99.90;;;;;;6306431;22;20056;-73
2024/03/15 02:56:01;;;;;;;14.20;9.47;;;8.60;99.90;;;;;;6306937;22;20030;-75
2024/03/15 02:58:28;;;;;;;16.93;9.90;;;8.60;99.90;;;;;;6306956;22;20011;-74
2024/03/15 03:00:57;;;;;;;16.53;10.03;;;8.50;99.90;;;;;;6306701;22;20003;-74
2024/03/15 03:03:23;;;;;;;17.70;9.37;;;8.50;99.90;;;;;;6306632;22;20393;-74
2024/03/15 03:05:49;;;;;;;13.93;9.60;;;8.50;99.90;;;;;;6279447;22;20062;-73
2024/03/15 03:08:15;;;;;;;20.23;10.97;;;8.50;99.90;;;;;;6306787;22;20094;-72
2024/03/15 03:10:41;;;;;;;20.17;11.00;;;8.40;99.90;;;;;;6306997;22;20023;-73
2024/03/15 03:13:07;;;;;;;20.17;11.17;;;8.40;99.90;;;;;;6307151;22;20003;-74
2024/03/15 03:15:33;;;;;;;16.13;10.50;;;8.40;99.90;;;;;;6306602;22;20018;-73
2024/03/15 03:18:00;;;;;;;19.30;10.73;;;8.30;99.90;;;;;;6279537;22;20015;-73
2024/03/15 03:20:32;;;;;;;19.03;11.10;;;8.30;99.90;;;;;;6305046;22;20103;-71
2024/03/15 03:22:59;;;;;;;;;;;8.30;99.90;;;;;;6338857;22;20013;-73
2024/03/15 03:25:24;;;;;;;14.00;10.00;;;8.30;99.90;;;;;;6339934;22;19902;-73
2024/03/15 03:27:50;;;;;;;17.80;10.50;;;8.30;99.90;;;;;;6340074;22;20423;-73
2024/03/15 03:30:17;;;;;;;16.40;11.00;;;8.20;99.90;;;;;;6340632;22;20325;-74
2024/03/15 03:32:43;;;;;;;19.03;10.20;;;8.20;99.90;;;;;;6340575;22;20007;-74
2024/03/15 03:35:09;;;;;;;25.33;10.70;;;8.20;99.90;;;;;;6340858;22;19999;-75
2024/03/15 03:37:35;;;;;;;23.20;11.23;;;8.10;99.90;;;;;;6341095;22;20014;-74
2024/03/15 03:40:17;;;;;;;17.57;10.97;;;8.10;99.90;;;;;;6338992;22;20298;-74
2024/03/15 03:46:34;;;;;;;14.63;9.73;;;8.10;99.90;;;;;;6274611;22;20022;-74
2024/03/15 03:53:14;;;;;;;16.77;10.13;;;8.10;99.90;;;;;;6275613;22;20361;-74
2024/03/15 03:59:36;;;;;;;20.03;9.73;;;8.10;99.90;;;;;;6275144;22;20034;-75
2024/03/15 04:02:20;;;;;;;17.40;9.50;;;8.00;99.90;;;;;;6213963;23;20327;-74
2024/03/15 04:08:17;;;;;;;17.23;9.93;;;8.00;99.90;;;;;;6152847;23;20005;-75
2024/03/15 04:10:43;;;;;;;16.97;9.17;;;8.00;99.90;;;;;;6235238;23;20012;-73
2024/03/15 04:13:09;;;;;;;25.60;8.77;;;8.00;99.90;;;;;;6294575;22;20086;-74
2024/03/15 04:15:35;;;;;;;19.87;8.27;;;7.90;99.90;;;;;;6339907;22;20370;-74
2024/03/15 04:18:02;;;;;;;15.17;8.20;;;7.90;99.90;;;;;;6339710;22;20014;-74
2024/03/15 04:20:29;;;;;;;16.83;7.23;;;8.00;99.90;;;;;;6339190;22;20160;-74
2024/03/15 04:22:55;;;;;;;16.87;7.23;;;8.00;99.90;;;;;;6339387;22;20003;-74
2024/03/15 04:25:23;;;;;;;14.70;7.50;;;7.90;99.90;;;;;;6339549;22;19995;-74
2024/03/15 04:27:49;;;;;;;12.17;7.30;;;7.90;99.90;;;;;;6339946;22;20098;-74
2024/03/15 04:30:15;;;;;;;15.07;7.47;;;7.80;99.90;;;;;;6338779;22;20022;-72
2024/03/15 04:32:42;;;;;;;13.03;8.10;;;7.80;99.90;;;;;;6339461;22;20425;-75
2024/03/15 04:35:08;;;;;;;16.50;8.67;;;7.70;99.90;;;;;;6339435;22;20429;-74
2024/03/15 04:37:34;;;;;;;15.57;8.10;;;7.70;99.90;;;;;;6339102;22;20447;-74
2024/03/15 04:40:01;;;;;;;13.73;8.23;;;7.60;99.90;;;;;;6339347;22;19998;-74
2024/03/15 04:42:31;;;;;;;17.30;7.97;;;7.60;99.90;;;;;;6339371;22;20375;-74
2024/03/15 04:44:57;;;;;;;17.57;8.37;;;7.50;99.90;;;;;;6339213;22;20416;-74
2024/03/15 04:47:23;;;;;;;9.50;7.17;;;7.50;99.90;;;;;;6338925;22;20448;-73
2024/03/15 04:49:49;;;;;;;17.90;7.80;;;7.50;99.90;;;;;;6339096;22;20005;-74
2024/03/15 04:52:14;;;;;;;18.57;7.80;;;7.50;99.90;;;;;;6339632;22;20132;-70
2024/03/15 04:54:40;;;;;;;12.23;8.20;;;7.50;99.90;;;;;;6339019;22;20026;-69
2024/03/15 04:57:06;;;;;;;17.63;7.90;;;7.50;99.90;;;;;;6338635;22;20027;-70
2024/03/15 04:59:31;;;;;;;17.10;8.23;;;7.50;99.90;;;;;;6338920;22;20082;-71
2024/03/15 05:01:57;;;;;;;18.10;7.80;;;7.50;99.90;;;;;;6339242;22;20003;-70
2024/03/15 05:04:23;;;;;;;15.43;7.93;;;7.50;99.90;;;;;;6339147;22;20006;-71
2024/03/15 05:06:49;;;;;;;20.07;8.33;;;7.50;99.90;;;;;;6339178;22;19995;-71
2024/03/15 05:09:15;;;;;;;18.47;8.03;;;7.50;99.90;;;;;;6337458;22;20032;-71
2024/03/15 05:11:40;;;;;;;17.33;8.67;;;7.50;99.90;;;;;;6339695;22;20003;-74
2024/03/15 05:14:08;;;;;;;14.43;8.37;;;7.50;99.90;;;;;;6340357;22;20014;-72
2024/03/15 05:16:34;;;;;;;14.63;8.90;;;7.40;99.90;;;;;;6337976;22;20010;-73
2024/03/15 05:19:00;;;;;;;20.33;9.00;;;7.40;99.90;;;;;;6339507;22;20023;-73
2024/03/15 05:21:29;;;;;;;17.50;8.27;;;7.40;99.90;;;;;;6339952;22;19999;-74
2024/03/15 05:23:55;;;;;;;22.53;8.87;;;7.40;99.90;;;;;;6339631;22;19998;-74
2024/03/15 05:30:09;;;;;;;13.10;8.47;;;7.30;99.90;;;;;;6304395;22;20002;-74
2024/03/15 05:32:50;;;;;;;13.73;8.20;;;7.40;99.90;;;;;;6337079;22;20089;-73
2024/03/15 05:35:48;;;;;;;16.13;8.20;;;7.40;99.90;;;;;;6338494;22;20325;-74
2024/03/15 05:38:55;;;;;;;13.17;7.87;;;7.40;99.90;;;;;;6338811;22;20007;-74
2024/03/15 05:50:48;;;;;;;21.35;9.23;;;7.40;99.90;;;;;;6223765;23;20007;-74
2024/03/15 05:53:15;;;;;;;22.97;8.53;;;7.40;99.90;;;;;;6329251;22;20333;-74
2024/03/15 05:55:41;;;;;;;26.07;9.40;;;7.40;99.90;;;;;;6339133;22;20007;-74
2024/03/15 05:58:06;;;;;;;18.00;8.37;;;7.40;99.90;;;;;;6338505;22;20014;-74
2024/03/15 06:00:35;;;;;;;21.53;8.43;;;7.40;99.90;;;;;;6338970;22;19995;-74
2024/03/15 06:03:05;;;;;;;19.03;8.83;;;7.50;99.90;;;;;;6338844;22;20042;-74
2024/03/15 06:05:32;;;;;;;21.03;8.50;;;7.50;99.90;;;;;;6338730;22;19999;-74
2024/03/15 06:07:57;;;;;;;21.63;8.27;;;7.50;99.90;;;;;;6338471;22;20329;-73
2024/03/15 06:10:25;;;;;;;12.27;7.60;;;7.50;99.90;;;;;;6338109;22;19995;-74
2024/03/15 06:12:53;;;;;;;15.60;7.33;;;7.50;99.90;;;;;;6338086;22;20329;-73
2024/03/15 06:15:21;;;;;;;17.67;7.23;;;7.60;99.90;;;;;;6338439;22;20428;-74
2024/03/15 06:17:48;;;;;;;11.70;6.80;;;7.70;99.90;;;;;;6338022;22;20337;-73
2024/03/15 06:20:14;;;;;;;11.73;5.80;;;7.70;99.90;;;;;;6338144;22;20467;-74
2024/03/15 06:22:39;;;;;;;11.87;6.00;;;7.70;99.90;;;;;;6338570;22;20026;-74
2024/03/15 06:25:08;;;;;;;9.63;5.97;;;7.70;99.90;;;;;;6338375;22;19995;-74
2024/03/15 06:27:34;;;;;;;11.63;6.10;;;7.70;99.90;;;;;;6338091;22;20429;-74
2024/03/15 06:30:03;;;;;;;10.73;6.17;;;7.70;99.90;;;;;;6338115;22;19999;-74
2024/03/15 06:32:36;;;;;;;12.67;6.20;;;7.70;99.90;;;;;;6335632;22;20022;-74
2024/03/15 06:35:11;;;;;;;14.57;6.72;;;7.70;99.90;;;;;;6337796;22;20052;-74
2024/03/15 06:37:39;;;;;;;8.80;5.70;;;7.80;99.90;;;;;;6337905;22;20026;-73
2024/03/15 06:40:17;;;;;;;9.13;6.50;;;7.90;99.90;;;;;;6337829;22;20444;-74
2024/03/15 06:45:44;;;;;;;12.53;6.80;;;8.00;99.90;;;;;;6338182;22;20037;-74
2024/03/15 06:48:17;;;;;;;11.13;7.65;;;8.10;99.90;;;;;;6338172;22;20002;-74
2024/03/15 06:50:48;;;;;;;15.53;8.30;;;8.10;99.90;;;;;;6336408;22;20011;-74
2024/03/15 06:53:20;;;;;;;18.87;9.03;;;8.20;99.90;;;;;;6336821;22;19999;-73
2024/03/15 06:55:46;;;;;;;15.67;8.67;;;8.20;99.90;;;;;;6338094;22;20002;-74
2024/03/15 06:58:12;;;;;;;16.93;7.80;;;8.30;99.90;;;;;;6337759;22;20331;-75
2024/03/15 07:00:40;;;;;;;31.57;8.63;;;8.40;99.90;;;;;;6338570;22;20306;-75
2024/03/15 07:03:07;;;;;;;22.87;8.40;;;8.50;99.90;;;;;;6338791;22;20371;-75
2024/03/15 07:05:33;;;;;;;21.93;8.57;;;8.50;99.90;;;;;;6338438;22;19999;-75
2024/03/15 07:08:21;;;;;;;22.37;8.77;;;8.60;99.90;;;;;;6336539;22;20007;-75
2024/03/15 07:11:34;;;;;;;21.00;8.17;;;8.60;99.90;;;;;;6329564;22;20085;-74
2024/03/15 07:23:58;;;;;;;28.93;9.77;;;8.80;99.90;;;;;;6106035;23;20018;-75
2024/03/15 07:27:04;;;;;;;32.77;9.53;;;9.00;99.90;;;;;;6150194;23;20602;-75
2024/03/15 07:30:04;;;;;;;28.87;10.40;;;9.00;99.90;;;;;;6149084;23;20088;-75
2024/03/15 07:36:01;;;;;;;26.20;9.93;;;9.20;99.90;;;;;;6061390;23;20068;-75
2024/03/15 07:38:27;;;;;;;50.90;9.90;;;9.30;99.90;;;;;;6152304;23;20452;-75
2024/03/15 07:40:57;;;;;;;38.13;10.30;;;9.30;99.90;;;;;;6222969;22;20038;-75
2024/03/15 07:43:23;;;;;;;31.03;10.53;;;9.40;99.90;;;;;;6338367;22;20006;-75
2024/03/15 07:45:49;;;;;;;27.97;9.13;;;9.50;99.90;;;;;;6338192;22;20022;-75
2024/03/15 07:48:16;;;;;;;35.23;9.27;;;9.60;99.90;;;;;;6337939;22;20003;-75
2024/03/15 07:50:43;;;;;;;28.33;9.13;;;9.70;99.90;;;;;;6335612;22;19999;-72
2024/03/15 07:53:10;;;;;;;27.33;9.70;;;9.70;99.90;;;;;;6336882;22;20320;-70
2024/03/15 07:55:36;;;;;;;33.13;8.50;;;9.80;99.90;;;;;;6337840;22;20034;-71
2024/03/15 07:58:03;;;;;;;28.70;8.90;;;9.90;99.90;;;;;;6337504;22;20087;-71
2024/03/15 08:00:31;;;;;;;35.73;8.63;;;10.00;99.90;;;;;;6338032;22;19998;-72
2024/03/15 08:02:57;;;;;;;26.20;9.60;;;10.10;99.90;;;;;;6337777;22;20002;-71
2024/03/15 08:05:27;;;;;;;29.67;8.40;;;10.20;99.90;;;;;;6339601;22;20031;-72
2024/03/15 08:07:53;;;;;;;23.08;8.23;;;10.30;99.90;;;;;;6339262;22;20089;-71
2024/03/15 08:10:23;;;;;;;19.85;8.10;;;10.30;99.90;;;;;;6339277;22;19999;-70
2024/03/15 08:12:50;;;;;;;22.73;7.70;;;10.40;99.90;;;;;;6337261;22;20437;-70
2024/03/15 08:15:16;;;;;;;25.87;7.63;;;10.50;99.90;;;;;;6338716;22;19999;-70
2024/03/15 08:17:50;;;;;;;17.37;7.40;;;10.50;99.90;;;;;;6338952;22;20329;-72
2024/03/15 08:20:20;;;;;;;16.13;7.10;;;10.60;99.90;;;;;;6339167;22;20095;-71
2024/03/15 08:22:46;;;;;;;21.20;7.65;;;10.70;99.90;;;;;;6339442;22;20006;-72
2024/03/15 08:25:13;;;;;;;16.95;7.70;;;10.70;99.90;;;;;;6337721;22;20056;-70
2024/03/15 08:27:44;;;;;;;25.75;7.70;;;10.80;99.90;;;;;;6337073;22;20348;-71
2024/03/15 08:30:13;;;;;;;18.52;7.18;;;10.80;99.90;;;;;;6338858;22;20022;-71
2024/03/15 08:32:40;;;;;;;13.90;5.53;;;10.90;99.90;;;;;;6339181;22;20003;-72
2024/03/15 08:35:13;;;;;;;17.15;6.28;;;10.90;99.90;;;;;;6340171;22;20085;-73
2024/03/15 08:37:43;;;;;;;9.98;5.80;;;10.90;99.90;;;;;;6338849;22;20025;-74
2024/03/15 08:40:13;;;;;;;18.42;6.40;;;10.90;99.90;;;;;;6338405;22;20002;-73
2024/03/15 08:42:40;;;;;;;14.70;5.63;;;11.00;99.90;;;;;;6338860;22;20380;-72
2024/03/15 08:45:09;;;;;;;15.05;5.60;;;11.00;99.90;;;;;;6336172;22;19998;-73
2024/03/15 08:47:37;;;;;;;11.38;5.30;;;11.00;99.90;;;;;;6337249;22;20003;-72
2024/03/15 08:50:04;;;;;;;17.05;5.55;;;11.00;99.90;;;;;;6338056;22;20015;-73
2024/03/15 08:52:39;;;;;;;10.85;5.50;;;11.10;99.90;;;;;;6334324;22;20036;-75
2024/03/15 08:55:23;;;;;;;;;;;11.10;99.90;;;;;;6339068;22;20488;-75
2024/03/15 08:57:49;;;;;;;;;;;11.10;99.90;;;;;;6338589;22;19959;-73
2024/03/15 09:00:38;;;;;;;20.17;5.22;;;11.20;99.90;;;;;;6339027;22;19898;-75
2024/03/15 09:03:09;;;;;;;15.38;5.85;;;11.20;99.90;;;;;;6328956;22;20019;-72
2024/03/15 09:05:38;;;;;;;10.68;4.97;;;11.20;99.90;;;;;;6338711;22;20005;-73
2024/03/15 09:08:06;;;;;;;15.98;5.72;;;11.20;99.90;;;;;;6336981;22;20014;-72
2024/03/15 09:10:33;;;;;;;13.77;5.22;;;11.30;99.90;;;;;;6338766;22;20007;-75
2024/03/15 09:12:59;;;;;;;13.45;5.55;;;11.20;99.90;;;;;;6337298;22;20030;-72
2024/03/15 09:15:26;;;;;;;11.95;4.57;;;11.30;99.90;;;;;;6337700;22;20055;-72
2024/03/15 09:17:53;;;;;;;11.85;4.60;;;11.30;99.90;;;;;;6338532;22;20440;-75
2024/03/15 09:22:48;;;;;;;15.55;4.88;;;11.40;99.90;;;;;;6339242;22;20090;-75
2024/03/15 09:25:23;;;;;;;9.13;5.00;;;11.40;99.90;;;;;;6338544;22;20052;-75
2024/03/15 09:27:52;;;;;;;17.13;5.68;;;11.40;99.90;;;;;;6337375;22;20007;-77
2024/03/15 09:30:36;;;;;;;18.83;5.53;;;11.40;99.90;;;;;;6335460;22;20009;-75
2024/03/15 09:33:08;;;;;;;12.25;5.28;;;11.40;99.90;;;;;;6333796;22;20007;-75
2024/03/15 09:35:36;;;;;;;9.77;5.13;;;11.50;99.90;;;;;;6337842;22;20026;-74
2024/03/15 09:38:02;;;;;;;16.67;6.18;;;11.50;99.90;;;;;;6338429;22;20011;-75
2024/03/15 09:40:29;;;;;;;12.70;5.90;;;11.50;99.90;;;;;;6334664;22;20436;-75
2024/03/15 09:42:55;;;;;;;14.68;5.95;;;11.60;99.90;;;;;;6335659;22;20336;-75
2024/03/15 09:45:22;;;;;;;13.73;7.05;;;11.60;99.90;;;;;;6335335;22;20003;-75
2024/03/15 09:47:52;;;;;;;18.90;7.20;;;11.60;99.90;;;;;;6338903;22;20005;-75
2024/03/15 09:50:24;;;;;;;10.82;6.28;;;11.70;99.90;;;;;;6339065;22;20492;-75
2024/03/15 09:52:55;;;;;;;13.27;6.88;;;11.70;99.90;;;;;;6339094;22;19994;-75
2024/03/15 09:55:21;;;;;;;15.50;6.28;;;11.70;99.90;;;;;;6337481;22;20337;-76
2024/03/15 09:57:49;;;;;;;10.32;6.03;;;11.70;99.90;;;;;;6339012;22;20007;-76
2024/03/15 10:00:17;;;;;;;14.00;5.82;;;11.80;99.90;;;;;;6337878;22;20003;-75
2024/03/15 10:02:47;;;;;;;16.35;6.32;;;11.80;99.90;;;;;;6338916;22;20306;-75
2024/03/15 10:05:16;;;;;;;12.07;5.70;;;11.80;99.90;;;;;;6339393;22;20006;-76
2024/03/15 10:07:43;;;;;;;17.85;5.40;;;11.90;99.90;;;;;;6338965;22;19998;-75
2024/03/15 10:10:13;;;;;;;12.98;5.43;;;11.90;99.90;;;;;;6338771;22;20361;-75
2024/03/15 10:12:44;;;;;;;12.77;5.10;;;12.00;99.90;;;;;;6339579;22;20310;-75
2024/03/15 10:15:14;;;;;;;11.45;3.72;;;11.90;99.90;;;;;;6339688;22;20085;-75
2024/03/15 10:17:46;;;;;;;8.57;4.50;;;12.00;99.90;;;;;;6339144;22;20011;-75
2024/03/15 10:20:15;;;;;;;8.02;3.28;;;12.00;99.90;;;;;;6338760;22;20015;-75
2024/03/15 10:23:26;;;;;;;10.20;4.63;;;12.00;99.80;;;;;;6338273;22;20026;-74
2024/03/15 10:29:41;;;;;;;10.93;4.22;;;12.10;99.90;;;;;;6152294;23;20009;-75
2024/03/15 10:36:08;;;;;;;11.65;4.13;;;12.10;98.90;;;;;;6153065;23;20048;-75
2024/03/15 10:39:42;;;;;;;11.48;4.45;;;12.10;99.50;;;;;;6153130;23;20014;-75
2024/03/15 10:42:13;;;;;;;6.00;3.45;;;12.20;99.30;;;;;;6178289;23;20423;-74
2024/03/15 10:45:14;;;;;;;8.38;3.17;;;12.20;97.90;;;;;;6212612;23;20015;-75
2024/03/15 10:48:06;;;;;;;6.95;3.42;;;12.20;98.70;;;;;;6120476;23;20425;-75
2024/03/15 10:50:34;;;;;;;6.30;3.20;;;12.20;98.90;;;;;;6123321;23;20006;-75
2024/03/15 10:53:05;;;;;;;4.55;2.83;;;12.30;97.90;;;;;;6239323;22;20376;-75
2024/03/15 10:55:31;;;;;;;8.88;2.90;;;12.30;97.40;;;;;;6338523;22;20423;-74
2024/03/15 10:57:59;;;;;;;8.43;4.05;;;12.30;96.80;;;;;;6338564;22;20094;-75
2024/03/15 11:00:28;;;;;;;7.80;3.42;;;12.30;95.90;;;;;;6338812;22;20007;-75
2024/03/15 11:02:55;;;;;;;8.07;3.30;;;12.30;96.60;;;;;;6338762;22;20387;-74
2024/03/15 11:05:29;;;;;;;7.50;3.35;;;12.30;97.10;;;;;;6338483;22;20052;-76
2024/03/15 11:08:08;;;;;;;8.77;3.58;;;12.40;96.40;;;;;;6337460;22;20302;-76
2024/03/15 11:10:36;;;;;;;8.00;3.78;;;12.40;95.30;;;;;;6338692;22;20387;-75
2024/03/15 11:13:05;;;;;;;6.85;3.50;;;12.30;94.70;;;;;;6338424;22;20067;-75
2024/03/15 11:15:38;;;;;;;7.53;3.28;;;12.30;95.10;;;;;;6338447;22;20452;-75
2024/03/15 11:18:08;;;;;;;5.53;2.70;;;12.40;96.00;;;;;;6336060;22;20029;-74
2024/03/15 11:20:46;;;;;;;10.52;2.90;;;12.40;95.30;;;;;;6338107;22;19999;-72
2024/03/15 11:23:16;;;;;;;5.13;2.60;;;12.40;95.50;;;;;;6338323;22;20383;-74
2024/03/15 11:25:59;;;;;;;5.68;3.05;;;12.50;95.50;;;;;;6336636;22;20011;-73
2024/03/15 11:28:27;;;;;;;;;;;12.50;95.30;;;;;;6338583;22;20074;-73
2024/03/15 11:30:53;;;;;;;6.70;2.65;;;12.50;95.40;;;;;;6335392;22;19953;-74
2024/03/15 11:33:19;;;;;;;8.75;2.75;;;12.50;95.10;;;;;;6334309;22;20707;-74
2024/03/15 11:35:45;;;;;;;6.95;3.05;;;12.60;95.70;;;;;;6334709;22;20069;-74
2024/03/15 11:38:15;;;;;;;6.50;3.20;;;12.60;95.70;;;;;;6337452;22;20038;-74
2024/03/15 11:40:41;;;;;;;6.05;3.13;;;12.60;95.80;;;;;;6339694;22;20104;-75
2024/03/15 11:43:11;;;;;;;8.63;3.08;;;12.60;95.60;;;;;;6341046;22;20017;-75
2024/03/15 11:45:38;;;;;;;6.72;2.47;;;12.70;96.10;;;;;;6340479;22;20308;-75
2024/03/15 11:48:21;;;;;;;6.07;2.90;;;12.80;96.00;;;;;;6340593;22;20003;-74
2024/03/15 11:50:48;;;;;;;9.10;3.05;;;12.80;95.80;;;;;;6340392;22;20007;-76
2024/03/15 12:04:53;;;;;;;11.00;3.30;;;12.90;94.60;;;;;;6121012;23;20014;-74
2024/03/15 12:07:57;;;;;;;8.85;3.80;;;13.00;94.60;;;;;;6065992;23;20007;-75
2024/03/15 12:10:35;;;;;;;15.27;5.03;;;13.00;94.90;;;;;;6121137;23;20010;-75
2024/03/15 12:13:21;;;;;;;10.10;3.35;;;13.00;96.00;;;;;;6242310;23;20004;-76
2024/03/15 12:19:20;;;;;;;8.48;3.60;;;13.00;96.10;;;;;;6250161;22;20477;-75
2024/03/15 12:21:46;;;;;;;11.82;3.65;;;13.10;95.50;;;;;;6308834;22;20372;-75
2024/03/15 12:24:12;;;;;;;11.60;4.30;;;13.10;95.80;;;;;;6308745;22;20325;-75
2024/03/15 12:26:38;;;;;;;12.48;3.70;;;13.10;95.90;;;;;;6308546;22;20074;-75
2024/03/15 12:29:04;;;;;;;10.90;3.67;;;13.10;94.20;;;;;;6308193;22;19999;-75
2024/03/15 12:31:30;;;;;;;11.50;3.80;;;13.10;95.00;;;;;;6308677;22;20375;-77
2024/03/15 12:33:55;;;;;;;13.35;4.55;;;13.10;95.40;;;;;;6308374;22;20074;-76
2024/03/15 12:36:21;;;;;;;15.15;4.55;;;13.20;94.80;;;;;;6280593;22;20003;-76
2024/03/15 12:38:47;;;;;;;17.23;3.85;;;13.20;92.60;;;;;;6305028;22;20026;-76
2024/03/15 12:41:13;;;;;;;12.50;3.83;;;13.20;91.80;;;;;;6304595;22;20072;-75
2024/03/15 12:43:39;;;;;;;13.18;4.90;;;13.20;92.90;;;;;;6304858;22;20003;-75
2024/03/15 12:46:09;;;;;;;21.52;4.88;;;13.30;93.70;;;;;;6307814;22;19999;-74
2024/03/15 12:48:37;;;;;;;12.35;3.92;;;13.30;93.50;;;;;;6308162;22;20003;-75
2024/03/15 12:51:03;;;;;;;14.98;4.45;;;13.40;93.40;;;;;;6307323;22;20007;-75
2024/03/15 12:53:29;;;;;;;14.43;4.88;;;13.50;93.60;;;;;;6307891;22;20007;-75
2024/03/15 12:55:55;;;;;;;17.10;5.47;;;13.50;93.70;;;;;;6308142;22;19999;-74
2024/03/15 12:58:21;;;;;;;18.42;5.50;;;13.50;93.30;;;;;;6307863;22;20301;-75
2024/03/15 13:00:50;;;;;;;16.63;4.80;;;13.60;93.50;;;;;;6307761;22;20078;-75
2024/03/15 13:03:17;;;;;;;12.32;4.28;;;13.60;91.80;;;;;;6306164;22;20008;-76
2024/03/15 13:05:43;;;;;;;14.90;5.45;;;13.60;92.40;;;;;;6304656;22;20444;-74
2024/03/15 13:08:09;;;;;;;16.42;4.90;;;13.60;92.90;;;;;;6304606;22;20003;-75
2024/03/15 13:10:35;;;;;;;16.27;4.18;;;13.60;91.30;;;;;;6306181;22;20000;-74
2024/03/15 13:13:06;;;;;;;15.70;4.95;;;13.70;92.00;;;;;;6308033;22;20019;-75
2024/03/15 13:15:33;;;;;;;18.38;4.85;;;13.70;92.30;;;;;;6280530;22;20373;-73
2024/03/15 13:18:01;;;;;;;12.90;4.75;;;13.70;92.20;;;;;;6313912;22;20333;-73
2024/03/15 13:20:27;;;;;;;13.63;4.60;;;13.80;92.20;;;;;;6338838;22;20010;-75
2024/03/15 13:22:54;;;;;;;15.50;5.20;;;13.80;90.80;;;;;;6339808;22;20003;-73
2024/03/15 13:25:24;;;;;;;19.88;6.50;;;13.80;90.50;;;;;;6312195;22;20017;-74
2024/03/15 13:27:51;;;;;;;12.20;4.93;;;13.70;90.50;;;;;;6339386;22;19998;-76
2024/03/15 13:30:18;;;;;;;14.27;5.32;;;13.80;91.10;;;;;;6339615;22;20336;-75
2024/03/15 13:33:14;;;;;;;15.40;5.47;;;13.80;92.20;;;;;;6338847;22;19999;-76
2024/03/15 13:43:08;;;;;;;16.73;4.53;;;13.80;91.20;;;;;;6243148;23;20011;-75
2024/03/15 13:56:22;;;;;;;20.13;5.95;;;13.90;92.70;;;;;;6008202;23;20007;-74
2024/03/15 13:58:48;;;;;;;16.65;5.20;;;13.90;91.90;;;;;;5971603;24;20051;-75
2024/03/15 14:01:18;;;;;;;18.92;5.78;;;13.90;91.80;;;;;;6027310;23;20324;-74
2024/03/15 14:03:45;;;;;;;16.48;5.57;;;13.90;92.30;;;;;;6205671;22;20007;-75
2024/03/15 14:06:11;;;;;;;23.13;6.10;;;13.90;91.90;;;;;;6338644;22;20001;-74
2024/03/15 14:08:37;;;;;;;19.98;6.30;;;13.90;92.70;;;;;;6338898;22;20006;-74
2024/03/15 14:11:03;;;;;;;18.52;6.97;;;14.00;92.50;;;;;;6338835;22;20009;-74
2024/03/15 14:13:29;;;;;;;21.98;7.00;;;14.00;92.30;;;;;;6338888;22;20105;-75
2024/03/15 14:15:55;;;;;;;20.42;6.95;;;14.00;92.70;;;;;;6338275;22;20003;-74
2024/03/15 14:18:21;;;;;;;20.33;6.22;;;14.00;93.20;;;;;;6337831;22;20042;-75
2024/03/15 14:20:47;;;;;;;16.63;7.65;;;14.00;93.70;;;;;;6310950;22;20028;-74
2024/03/15 14:23:13;;;;;;;22.33;7.22;;;14.00;93.80;;;;;;6338608;22;20006;-74
2024/03/15 14:25:39;;;;;;;28.63;8.05;;;14.00;94.20;;;;;;6338140;22;20048;-75
2024/03/15 14:28:06;;;;;;;17.35;6.60;;;14.00;94.60;;;;;;6338152;22;20489;-74
2024/03/15 14:30:35;;;;;;;23.17;7.00;;;14.00;93.80;;;;;;6337848;22;20048;-73
2024/03/15 14:33:08;;;;;;;25.63;6.65;;;14.00;93.70;;;;;;6338022;22;19998;-73
2024/03/15 14:35:34;;;;;;;21.83;8.05;;;14.00;94.50;;;;;;6338277;22;19998;-74
2024/03/15 14:38:03;;;;;;;18.27;6.80;;;13.90;94.00;;;;;;6338029;22;20011;-72
2024/03/15 14:40:34;;;;;;;24.90;11.00;;;13.90;94.70;;;;;;6338412;22;20006;-73
2024/03/15 14:43:00;;;;;;;31.00;14.45;;;13.90;95.10;;;;;;6338053;22;20005;-73
2024/03/15 14:45:29;;;;;;;17.92;8.20;;;13.90;95.30;;;;;;6338267;22;20436;-72
2024/03/15 14:47:56;;;;;;;16.52;8.20;;;13.90;95.40;;;;;;6338219;22;20006;-73
2024/03/15 14:50:24;;;;;;;16.08;8.15;;;13.90;95.50;;;;;;6338065;22;19995;-73
2024/03/15 14:52:50;;;;;;;17.70;7.95;;;13.90;95.60;;;;;;6338042;22;20049;-73
2024/03/15 14:55:19;;;;;;;21.25;8.43;;;13.90;96.00;;;;;;6337744;22;19999;-73